Latest Coastal Weather Observations for Eucla

IDW60701

Issued at 11:53 am WST Monday 20 February 2017 (issued every 10 minutes, with the page automatically refreshed every 10 minutes)

About coastal observations | Map of coastal stations | Coastal observations for WA | Marine services | Other Formats
Station Details ID: 011003 Name: EUCLA Lat: -31.68 Lon: 128.90 Height: 93.1 m
Data from the previous 72 hours. | See also: Recent months at Eucla
Date/Time
WST
Temp
°C
Wind Pressure Rain since
9am
mm
Weather Cloud Vis
km
Sea
Height
m
Swell
Dir  Spd
kts
Gust
kts
hPa Trend Height
m
Period
s
Dir
20/11:30am 23.7 ESE 13 16 1015.6 - 0.0 - - - - - - -
20/11:00am 23.8 SE 11 16 1015.9 - 0.0 - - - - - - -
20/10:30am 24.7 NNW 5 9 1016.3 - 0.0 - - - - - - -
20/10:00am 24.6 NNW 7 11 1016.9 - 0.0 - - - - - - -
20/09:30am 23.3 NNE 7 11 1017.3 - 0.0 - - - - - - -
20/09:00am 21.8 NNE 7 11 1018.0 - 0.0 Fine Clear 40 - - - -
20/08:30am 20.9 NNE 9 14 1018.4 - 0.0 - - - - - - -
20/08:00am 19.5 NNE 11 16 1018.3 - 0.0 - - - - - - -
20/07:30am 18.5 NNE 13 18 1017.9 - 0.0 - - - - - - -
20/07:00am 16.6 NNE 10 14 1018.2 - 0.0 - - - - - - -
20/06:30am 14.7 NNE 9 14 1018.3 - 0.0 - - - - - - -
20/06:00am 12.5 NNE 9 12 1018.3 - 0.0 - - - - - - -
20/05:30am 10.8 NNE 8 11 1018.0 - 0.0 - - - - - - -
20/05:00am 10.5 NNE 9 11 1017.8 - 0.0 - - - - - - -
20/04:30am 10.4 NNE 8 10 1017.9 - 0.0 - - - - - - -
20/04:00am 10.2 NNE 6 8 1018.1 - 0.0 - - - - - - -
20/03:30am 10.4 NNE 7 8 1018.2 - 0.0 - - - - - - -
20/03:00am 10.2 NNE 6 7 1018.1 - 0.0 - - - - - - -
20/02:30am 10.8 NNE 6 6 1018.0 - 0.0 - - - - - - -
20/02:00am 10.8 NNE 5 6 1018.0 - 0.0 - - - - - - -
20/01:30am 11.4 NNE 6 8 1017.9 - 0.0 - - - - - - -
20/01:00am 11.7 NE 6 7 1017.9 - 0.0 - - - - - - -
20/12:30am 11.9 NE 6 7 1018.1 - 0.0 - - - - - - -
20/12:00am 12.2 NE 6 7 1018.3 - 0.0 - - - - - - -
 
Date/Time
WST
Temp
°C
Wind Pressure Rain since
9am
mm
Weather Cloud Vis
km
Sea
Height
m
Swell
Dir  Spd
kts
Gust
kts
hPa Trend Height
m
Period
s
Dir
19/11:30pm 12.2 NE 5 6 1018.6 - 0.0 - - - - - - -
19/11:00pm 13.3 NE 5 5 1018.8 - 0.0 - - - - - - -
19/10:30pm 14.9 ENE 5 7 1019.0 - 0.0 - - - - - - -
19/10:00pm 15.6 E 6 7 1019.2 - 0.0 - - - - - - -
19/09:30pm 15.8 E 7 10 1019.5 - 0.0 - - - - - - -
19/09:00pm 16.3 E 7 9 1019.7 - 0.0 - - - - - - -
19/08:30pm 16.6 E 7 9 1020.0 - 0.0 - - - - - - -
19/08:00pm 17.0 ESE 7 9 1020.0 - 0.0 - - - - - - -
19/07:30pm 17.3 ESE 7 10 1019.9 - 0.0 - - - - - - -
19/07:00pm 17.3 ESE 7 12 1019.8 - 0.0 - - - - - - -
19/06:30pm 17.6 ESE 8 11 1019.6 - 0.0 - - - - - - -
19/06:00pm 17.8 ESE 8 12 1019.4 - 0.0 - - - - - - -
19/05:30pm 18.4 ESE 8 12 1019.4 - 0.0 - - - - - - -
19/05:00pm 19.2 ESE 9 14 1019.5 - 0.0 - - - - - - -
19/04:30pm 19.9 SE 10 15 1019.5 - 0.0 - - - - - - -
19/04:00pm 20.2 SE 10 17 1019.4 - 0.0 - - - - - - -
19/03:30pm 21.0 SE 10 15 1019.6 - 0.0 - - - - - - -
19/03:00pm 20.7 SSE 10 15 1019.6 - 0.0 Fine Mostly clear 40 - - - -
19/02:30pm 21.2 SE 10 18 1019.6 - 0.0 - - - - - - -
19/02:00pm 20.9 SE 12 18 1019.7 - 0.0 - - - - - - -
19/01:30pm 22.0 SSE 10 16 1020.1 - 0.0 - - - - - - -
19/01:00pm 22.0 SE 10 16 1020.3 - 0.0 - - - - - - -
19/12:30pm 21.4 ESE 11 17 1020.7 - 0.0 - - - - - - -
19/12:00pm 21.3 SE 11 17 1020.9 - 0.0 - - - - - - -
19/11:30am 21.2 ESE 9 15 1020.9 - 0.0 - - - - - - -
19/11:00am 20.9 SE 9 15 1021.4 - 0.0 - - - - - - -
19/10:30am 21.9 SE 8 12 1021.9 - 0.0 - - - - - - -
19/10:00am 21.2 SE 9 15 1022.1 - 0.0 - - - - - - -
19/09:30am 21.3 SE 8 12 1022.5 - 0.0 - - - - - - -
19/09:00am 20.8 SSE 7 12 1022.9 - 0.0 Fine Mostly clear 40 - - - -
19/08:30am 20.6 SE 7 10 1023.0 - 0.0 - - - - - - -
19/08:00am 19.2 SE 7 10 1023.0 - 0.0 - - - - - - -
19/07:30am 18.7 SE 7 9 1023.1 - 0.0 - - - - - - -
19/07:00am 18.3 SE 7 10 1022.9 - 0.0 - - - - - - -
19/06:30am 17.8 ESE 7 11 1022.5 - 0.0 - - - - - - -
19/06:00am 17.6 ESE 8 10 1022.2 - 0.0 - - - - - - -
19/05:30am 17.3 SE 5 8 1022.1 - 0.0 - - - - - - -
19/05:00am 17.2 SSE 6 9 1021.8 - 0.0 - - - - - - -
19/04:30am 17.2 SE 6 9 1021.7 - 0.0 - - - - - - -
19/04:00am 16.9 SE 5 7 1021.6 - 0.0 - - - - - - -
19/03:30am 16.8 SE 5 6 1021.5 - 0.0 - - - - - - -
19/03:00am 16.8 SE 7 11 1021.5 - 0.0 - - - - - - -
19/02:30am 16.4 SE 6 8 1021.5 - 0.0 - - - - - - -
19/02:00am 16.2 SE 6 8 1021.5 - 0.0 - - - - - - -
19/01:30am 16.6 SE 7 11 1021.5 - 0.0 - - - - - - -
19/01:00am 16.1 SE 6 8 1021.7 - 0.0 - - - - - - -
19/12:30am 16.7 SE 7 10 1021.9 - 0.0 - - - - - - -
19/12:00am 17.3 SE 8 13 1022.2 - 0.0 - - - - - - -
 
Date/Time
WST
Temp
°C
Wind Pressure Rain since
9am
mm
Weather Cloud Vis
km
Sea
Height
m
Swell
Dir  Spd
kts
Gust
kts
hPa Trend Height
m
Period
s
Dir
18/11:30pm 17.7 SE 8 11 1022.9 - 0.0 - - - - - - -
18/11:00pm 17.6 SE 6 9 1023.2 - 0.0 - - - - - - -
18/10:30pm 17.6 SE 9 13 1023.6 - 0.0 - - - - - - -
18/10:00pm 17.7 SE 8 13 1023.6 - 0.0 - - - - - - -
18/09:30pm 17.7 SSE 9 15 1023.7 - 0.0 - - - - - - -
18/09:00pm 17.7 SSE 9 14 1023.6 - 0.0 - - - - - - -
18/08:30pm 17.6 SSE 10 15 1023.6 - 0.0 - - - - - - -
18/08:00pm 17.5 SSE 9 16 1023.6 - 0.0 - - - - - - -
18/07:30pm 17.7 SSE 9 14 1023.5 - 0.0 - - - - - - -
18/07:00pm 17.1 SSE 8 13 1023.5 - 0.0 - - - - - - -
18/06:30pm 17.7 SSE 9 14 1023.3 - 0.0 - - - - - - -
18/06:00pm 18.0 SSE 11 16 1023.0 - 0.0 - - - - - - -
18/05:30pm 18.3 SSE 10 15 1022.9 - 0.0 - - - - - - -
18/05:00pm 19.1 SSE 11 17 1022.5 - 0.0 - - - - - - -
18/04:30pm 19.8 SSE 11 18 1022.2 - 0.0 - - - - - - -
18/04:00pm 20.5 S 11 18 1022.4 - 0.0 - - - - - - -
18/03:30pm 20.9 S 12 17 1022.2 - 0.0 - - - - - - -
18/03:00pm 21.1 SSE 13 18 1022.2 - 0.0 Fine Mostly clear 40 - - - -
18/02:30pm 21.6 SSE 13 20 1022.2 - 0.0 - - - - - - -
18/02:00pm 21.4 S 12 19 1022.2 - 0.0 - - - - - - -
18/01:30pm 22.0 SSE 12 18 1022.6 - 0.0 - - - - - - -
18/01:00pm 21.7 SSE 13 18 1023.0 - 0.0 - - - - - - -
18/12:30pm 21.8 S 11 18 1023.1 - 0.0 - - - - - - -
18/12:00pm 22.3 SSE 12 17 1023.3 - 0.0 - - - - - - -
18/11:30am 22.0 S 12 20 1023.3 - 0.0 - - - - - - -
18/11:00am 22.6 S 12 20 1023.4 - 0.0 - - - - - - -
18/10:30am 21.7 S 12 19 1023.4 - 0.0 - - - - - - -
18/10:00am 22.6 S 11 18 1023.5 - 0.0 - - - - - - -
18/09:30am 21.1 S 10 16 1023.5 - 0.0 - - - - - - -
18/09:00am 21.5 SSE 11 18 1023.3 - 0.0 Fine Partly cloudy 40 - - - -
18/08:30am 20.9 S 8 14 1023.2 - 0.0 - - - - - - -
18/08:00am 19.7 S 9 14 1023.5 - 0.0 - - - - - - -
18/07:30am 19.0 S 9 15 1023.3 - 0.0 - - - - - - -
18/07:00am 18.5 S 7 10 1023.0 - 0.0 - - - - - - -
18/06:30am 18.2 S 8 12 1022.9 - 0.0 - - - - - - -
18/06:00am 18.1 S 8 13 1022.5 - 0.0 - - - - - - -
18/05:30am 17.4 S 7 11 1022.0 - 0.0 - - - - - - -
18/05:00am 17.2 S 6 9 1021.7 - 0.0 - - - - - - -
18/04:30am 17.1 S 8 11 1021.4 - 0.0 - - - - - - -
18/04:00am 17.3 S 7 12 1021.2 - 0.0 - - - - - - -
18/03:30am 17.2 SSE 8 12 1020.8 - 0.0 - - - - - - -
18/03:00am 17.4 SSE 7 12 1020.7 - 0.0 - - - - - - -
18/02:30am 17.5 S 7 13 1020.5 - 0.0 - - - - - - -
18/02:00am 17.4 S 8 12 1020.5 - 0.0 - - - - - - -
18/01:30am 17.7 S 10 16 1020.3 - 0.0 - - - - - - -
18/01:00am 17.4 S 7 11 1020.4 - 0.0 - - - - - - -
18/12:30am 17.7 S 9 14 1020.6 - 0.0 - - - - - - -
18/12:00am 17.8 S 9 14 1020.8 - 0.0 - - - - - - -
 
Date/Time
WST
Temp
°C
Wind Pressure Rain since
9am
mm
Weather Cloud Vis
km
Sea
Height
m
Swell
Dir  Spd
kts
Gust
kts
hPa Trend Height
m
Period
s
Dir
17/11:30pm 17.9 S 8 14 1020.8 - 0.0 - - - - - - -
17/11:00pm 17.9 S 9 14 1020.9 - 0.0 - - - - - - -
17/10:30pm 17.8 S 9 14 1021.0 - 0.0 - - - - - - -
17/10:00pm 18.0 S 8 12 1021.1 - 0.0 - - - - - - -
17/09:30pm 18.5 S 8 14 1021.2 - 0.0 - - - - - - -
17/09:00pm 18.7 S 9 15 1021.3 - 0.0 - - - - - - -
17/08:30pm 18.8 S 9 15 1021.2 - 0.0 - - - - - - -
17/08:00pm 18.5 S 7 10 1021.1 - 0.0 - - - - - - -
17/07:30pm 18.3 S 7 11 1021.0 - 0.0 - - - - - - -
17/07:00pm 18.7 S 10 15 1020.9 - 0.0 - - - - - - -
17/06:30pm 18.9 S 11 17 1020.6 - 0.0 - - - - - - -
17/06:00pm 18.9 S 8 14 1020.2 - 0.0 - - - - - - -
17/05:30pm 19.5 S 10 17 1019.7 - 0.0 - - - - - - -
17/05:00pm 19.8 S 9 15 1019.5 - 0.0 - - - - - - -
17/04:30pm 18.7 S 8 13 1019.3 - 0.0 - - - - - - -
17/04:00pm 20.7 S 11 17 1019.2 - 0.0 - - - - - - -
17/03:30pm 21.6 SSW 10 15 1018.9 - 0.0 - - - - - - -
17/03:00pm 21.8 S 10 15 1019.0 - 0.0 Fine Mostly clear 40 - - - -
17/02:30pm 22.4 S 10 15 1018.8 - 0.0 - - - - - - -
17/02:00pm 21.6 S 11 17 1019.0 - 0.0 - - - - - - -
17/01:30pm 22.0 SSW 11 16 1019.2 - 0.0 - - - - - - -
17/01:00pm 21.9 SSW 10 15 1019.1 - 0.0 - - - - - - -
17/12:30pm 22.2 S 9 16 1019.3 - 0.0 - - - - - - -
17/12:00pm 22.1 S 8 14 1019.4 - 0.0 - - - - - - -

Other Formats:

Comma delimited format used in spreadsheet applications
http://www.bom.gov.au/fwo/IDW60701/IDW60701.94647.axf

JavaScript Object Notation format (JSON) in row-major order
http://www.bom.gov.au/fwo/IDW60701/IDW60701.94647.json